sensor_id;sensor_type;location;lat;lon;timestamp;pressure;altitude;pressure_sealevel;temperature;humidity
6835;BME280;3455;42.150;24.734;2023-02-19T00:01:45;66774.25;;;14.71;37.94
6835;BME280;3455;42.150;24.734;2023-02-19T00:04:14;66784.06;;;14.79;38.36
6835;BME280;3455;42.150;24.734;2023-02-19T00:06:41;66783.78;;;14.54;38.27
6835;BME280;3455;42.150;24.734;2023-02-19T00:09:10;66784.19;;;14.73;38.02
6835;BME280;3455;42.150;24.734;2023-02-19T00:11:38;66795.75;;;14.33;39.11
6835;BME280;3455;42.150;24.734;2023-02-19T00:14:06;66731.09;;;14.30;38.98
6835;BME280;3455;42.150;24.734;2023-02-19T00:16:35;66684.19;;;13.84;39.53
6835;BME280;3455;42.150;24.734;2023-02-19T00:19:06;66687.88;;;13.96;39.21
6835;BME280;3455;42.150;24.734;2023-02-19T00:21:33;66711.38;;;13.86;39.38
6835;BME280;3455;42.150;24.734;2023-02-19T00:24:02;66743.44;;;12.88;41.01
6835;BME280;3455;42.150;24.734;2023-02-19T00:26:31;66553.88;;;12.77;41.14
6835;BME280;3455;42.150;24.734;2023-02-19T00:28:59;66620.22;;;12.87;41.45
6835;BME280;3455;42.150;24.734;2023-02-19T00:31:28;66628.28;;;13.16;40.66
6835;BME280;3455;42.150;24.734;2023-02-19T00:33:57;66585.72;;;13.10;41.13
6835;BME280;3455;42.150;24.734;2023-02-19T00:36:26;66628.00;;;13.30;40.51
6835;BME280;3455;42.150;24.734;2023-02-19T00:38:53;66617.41;;;13.11;40.76
6835;BME280;3455;42.150;24.734;2023-02-19T00:41:21;66586.44;;;12.93;41.06
6835;BME280;3455;42.150;24.734;2023-02-19T00:43:51;66563.47;;;12.77;41.57
6835;BME280;3455;42.150;24.734;2023-02-19T00:46:19;66546.97;;;12.26;42.98
6835;BME280;3455;42.150;24.734;2023-02-19T00:48:46;66602.84;;;12.94;41.40
6835;BME280;3455;42.150;24.734;2023-02-19T00:51:14;66623.66;;;13.12;41.19
6835;BME280;3455;42.150;24.734;2023-02-19T00:53:41;66626.44;;;13.10;40.96
6835;BME280;3455;42.150;24.734;2023-02-19T00:56:09;66637.84;;;13.27;40.49
6835;BME280;3455;42.150;24.734;2023-02-19T00:58:36;66675.00;;;13.31;40.91
6835;BME280;3455;42.150;24.734;2023-02-19T01:01:05;66610.47;;;13.05;41.23
6835;BME280;3455;42.150;24.734;2023-02-19T01:03:32;66640.31;;;13.00;41.30
6835;BME280;3455;42.150;24.734;2023-02-19T01:06:00;66579.50;;;13.09;41.28
6835;BME280;3455;42.150;24.734;2023-02-19T01:08:28;66624.13;;;13.08;41.25
6835;BME280;3455;42.150;24.734;2023-02-19T01:10:55;66592.47;;;12.84;41.40
6835;BME280;3455;42.150;24.734;2023-02-19T01:13:22;66597.19;;;12.93;41.60
6835;BME280;3455;42.150;24.734;2023-02-19T01:15:49;66619.28;;;12.95;41.41
6835;BME280;3455;42.150;24.734;2023-02-19T01:18:17;66608.38;;;13.12;41.64
6835;BME280;3455;42.150;24.734;2023-02-19T01:20:44;66589.72;;;12.75;42.22
6835;BME280;3455;42.150;24.734;2023-02-19T01:23:11;66579.66;;;12.69;42.44
6835;BME280;3455;42.150;24.734;2023-02-19T01:25:39;66603.34;;;12.67;42.29
6835;BME280;3455;42.150;24.734;2023-02-19T01:28:06;66549.88;;;12.51;42.92
6835;BME280;3455;42.150;24.734;2023-02-19T01:30:33;66573.31;;;12.52;42.91
6835;BME280;3455;42.150;24.734;2023-02-19T01:33:02;66571.56;;;12.61;42.54
6835;BME280;3455;42.150;24.734;2023-02-19T01:35:30;66595.94;;;12.65;42.67
6835;BME280;3455;42.150;24.734;2023-02-19T01:37:57;66552.50;;;12.44;42.49
6835;BME280;3455;42.150;24.734;2023-02-19T01:40:24;66571.00;;;12.72;42.47
6835;BME280;3455;42.150;24.734;2023-02-19T01:42:51;66580.69;;;12.42;43.17
6835;BME280;3455;42.150;24.734;2023-02-19T01:45:23;66574.47;;;12.64;42.57
6835;BME280;3455;42.150;24.734;2023-02-19T01:47:55;66598.25;;;12.78;42.53
6835;BME280;3455;42.150;24.734;2023-02-19T01:50:26;66587.63;;;12.71;42.58
6835;BME280;3455;42.150;24.734;2023-02-19T01:52:55;66542.59;;;12.31;43.38
6835;BME280;3455;42.150;24.734;2023-02-19T01:55:23;66539.81;;;12.33;43.15
6835;BME280;3455;42.150;24.734;2023-02-19T01:57:53;66574.81;;;12.55;42.87
6835;BME280;3455;42.150;24.734;2023-02-19T02:00:20;66593.63;;;12.63;42.87
6835;BME280;3455;42.150;24.734;2023-02-19T02:02:51;66578.50;;;12.68;42.57
6835;BME280;3455;42.150;24.734;2023-02-19T02:05:23;66572.59;;;12.58;42.79
6835;BME280;3455;42.150;24.734;2023-02-19T02:07:55;66604.03;;;12.72;42.79
6835;BME280;3455;42.150;24.734;2023-02-19T02:10:40;66571.69;;;12.66;42.60
6835;BME280;3455;42.150;24.734;2023-02-19T02:13:08;66533.34;;;12.45;43.25
6835;BME280;3455;42.150;24.734;2023-02-19T02:15:38;66633.84;;;12.90;42.40
6835;BME280;3455;42.150;24.734;2023-02-19T02:18:12;66637.31;;;12.93;42.65
6835;BME280;3455;42.150;24.734;2023-02-19T02:20:56;66554.13;;;12.64;43.02
6835;BME280;3455;42.150;24.734;2023-02-19T02:23:37;66575.16;;;12.24;43.93
6835;BME280;3455;42.150;24.734;2023-02-19T02:26:09;66512.81;;;12.02;44.33
6835;BME280;3455;42.150;24.734;2023-02-19T02:28:59;66541.09;;;12.16;44.32
6835;BME280;3455;42.150;24.734;2023-02-19T02:31:38;66539.59;;;12.24;44.21
6835;BME280;3455;42.150;24.734;2023-02-19T02:34:13;66524.34;;;12.24;44.42
6835;BME280;3455;42.150;24.734;2023-02-19T02:36:43;66542.13;;;12.35;44.08
6835;BME280;3455;42.150;24.734;2023-02-19T02:39:14;66527.81;;;12.16;44.06
6835;BME280;3455;42.150;24.734;2023-02-19T02:41:44;66497.31;;;11.59;45.58
6835;BME280;3455;42.150;24.734;2023-02-19T02:44:11;66466.16;;;11.77;44.78
6835;BME280;3455;42.150;24.734;2023-02-19T02:46:41;66560.94;;;12.20;44.06
6835;BME280;3455;42.150;24.734;2023-02-19T02:49:15;66728.06;;;12.31;44.03
6835;BME280;3455;42.150;24.734;2023-02-19T02:51:46;66503.81;;;11.92;44.92
6835;BME280;3455;42.150;24.734;2023-02-19T02:54:17;66559.34;;;12.23;44.13
6835;BME280;3455;42.150;24.734;2023-02-19T02:57:02;66480.47;;;11.85;44.97
6835;BME280;3455;42.150;24.734;2023-02-19T02:59:33;66455.34;;;11.83;45.13
6835;BME280;3455;42.150;24.734;2023-02-19T03:02:05;66494.78;;;11.71;45.37
6835;BME280;3455;42.150;24.734;2023-02-19T03:04:45;66507.28;;;11.95;45.10
6835;BME280;3455;42.150;24.734;2023-02-19T03:07:35;66448.16;;;11.56;45.50
6835;BME280;3455;42.150;24.734;2023-02-19T03:10:06;66506.91;;;11.70;45.40
6835;BME280;3455;42.150;24.734;2023-02-19T03:12:37;66452.34;;;11.64;45.79
6835;BME280;3455;42.150;24.734;2023-02-19T03:15:24;66414.59;;;11.10;47.17
6835;BME280;3455;42.150;24.734;2023-02-19T03:18:21;66413.69;;;11.19;46.69
6835;BME280;3455;42.150;24.734;2023-02-19T03:21:06;66449.31;;;11.35;46.49
6835;BME280;3455;42.150;24.734;2023-02-19T03:23:34;66474.00;;;11.63;45.97
6835;BME280;3455;42.150;24.734;2023-02-19T03:26:20;66512.56;;;11.82;45.53
6835;BME280;3455;42.150;24.734;2023-02-19T03:28:49;66458.31;;;11.56;45.99
6835;BME280;3455;42.150;24.734;2023-02-19T03:31:37;66463.28;;;11.52;45.89
6835;BME280;3455;42.150;24.734;2023-02-19T03:34:10;66496.41;;;11.90;45.56
6835;BME280;3455;42.150;24.734;2023-02-19T03:36:43;66503.91;;;11.85;45.31
6835;BME280;3455;42.150;24.734;2023-02-19T03:39:14;66450.94;;;11.43;46.09
6835;BME280;3455;42.150;24.734;2023-02-19T03:41:47;66461.78;;;11.59;45.97
6835;BME280;3455;42.150;24.734;2023-02-19T03:44:24;66468.03;;;11.60;45.67
6835;BME280;3455;42.150;24.734;2023-02-19T03:46:55;66495.03;;;11.80;45.40
6835;BME280;3455;42.150;24.734;2023-02-19T03:49:33;66518.34;;;11.87;44.97
6835;BME280;3455;42.150;24.734;2023-02-19T03:52:12;66538.91;;;12.07;44.75
6835;BME280;3455;42.150;24.734;2023-02-19T03:54:46;66492.25;;;11.82;44.76
6835;BME280;3455;42.150;24.734;2023-02-19T03:57:18;66488.78;;;11.67;44.97
6835;BME280;3455;42.150;24.734;2023-02-19T03:59:50;66472.63;;;11.64;45.23
6835;BME280;3455;42.150;24.734;2023-02-19T04:02:26;66480.81;;;11.76;45.30
6835;BME280;3455;42.150;24.734;2023-02-19T04:04:59;66513.03;;;11.78;45.01
6835;BME280;3455;42.150;24.734;2023-02-19T04:07:32;66517.66;;;12.04;44.24
6835;BME280;3455;42.150;24.734;2023-02-19T04:10:01;66546.28;;;12.32;43.95
6835;BME280;3455;42.150;24.734;2023-02-19T04:12:29;66522.50;;;12.18;43.65
6835;BME280;3455;42.150;24.734;2023-02-19T04:14:58;66523.88;;;12.28;43.51
6835;BME280;3455;42.150;24.734;2023-02-19T04:17:29;66546.16;;;12.39;43.65
6835;BME280;3455;42.150;24.734;2023-02-19T04:20:00;66555.41;;;12.47;43.26
6835;BME280;3455;42.150;24.734;2023-02-19T04:22:29;66572.50;;;12.53;43.11
6835;BME280;3455;42.150;24.734;2023-02-19T04:24:56;66578.97;;;12.63;42.19
6835;BME280;3455;42.150;24.734;2023-02-19T04:27:23;66626.44;;;12.99;41.82
6835;BME280;3455;42.150;24.734;2023-02-19T04:29:50;66594.09;;;12.81;42.00
6835;BME280;3455;42.150;24.734;2023-02-19T04:32:17;66602.88;;;12.71;42.51
6835;BME280;3455;42.150;24.734;2023-02-19T04:34:43;66599.28;;;12.75;42.41
6835;BME280;3455;42.150;24.734;2023-02-19T04:37:11;66595.00;;;12.62;42.85
6835;BME280;3455;42.150;24.734;2023-02-19T04:39:38;66588.44;;;12.47;42.75
6835;BME280;3455;42.150;24.734;2023-02-19T04:42:05;66554.16;;;12.41;42.99
6835;BME280;3455;42.150;24.734;2023-02-19T04:44:32;66576.31;;;12.48;43.11
6835;BME280;3455;42.150;24.734;2023-02-19T04:46:59;66606.34;;;12.52;43.16
6835;BME280;3455;42.150;24.734;2023-02-19T04:49:26;66564.75;;;12.49;42.87
6835;BME280;3455;42.150;24.734;2023-02-19T04:51:53;66576.78;;;12.66;42.63
6835;BME280;3455;42.150;24.734;2023-02-19T04:54:21;66587.16;;;12.75;42.70
6835;BME280;3455;42.150;24.734;2023-02-19T04:56:47;66588.78;;;12.72;42.66
6835;BME280;3455;42.150;24.734;2023-02-19T04:59:15;66592.69;;;12.71;42.34
6835;BME280;3455;42.150;24.734;2023-02-19T05:01:42;66626.69;;;12.97;41.77
6835;BME280;3455;42.150;24.734;2023-02-19T05:04:08;66625.72;;;13.05;42.08
6835;BME280;3455;42.150;24.734;2023-02-19T05:06:35;66623.56;;;12.96;41.91
6835;BME280;3455;42.150;24.734;2023-02-19T05:09:02;66625.97;;;13.14;41.50
6835;BME280;3455;42.150;24.734;2023-02-19T05:11:30;66630.56;;;13.18;41.40
6835;BME280;3455;42.150;24.734;2023-02-19T05:13:57;66673.03;;;13.20;41.33
6835;BME280;3455;42.150;24.734;2023-02-19T05:16:23;66695.81;;;13.49;40.93
6835;BME280;3455;42.150;24.734;2023-02-19T05:18:50;66640.31;;;13.22;41.37
6835;BME280;3455;42.150;24.734;2023-02-19T05:21:17;66665.53;;;13.36;41.11
6835;BME280;3455;42.150;24.734;2023-02-19T05:23:44;66694.88;;;13.57;40.89
6835;BME280;3455;42.150;24.734;2023-02-19T05:26:12;66681.91;;;13.59;40.83
6835;BME280;3455;42.150;24.734;2023-02-19T05:28:42;66656.72;;;13.46;40.81
6835;BME280;3455;42.150;24.734;2023-02-19T05:31:10;66702.28;;;13.59;40.28
6835;BME280;3455;42.150;24.734;2023-02-19T05:33:37;66713.00;;;13.94;39.53
6835;BME280;3455;42.150;24.734;2023-02-19T05:36:06;66889.13;;;14.08;39.53
6835;BME280;3455;42.150;24.734;2023-02-19T05:38:33;66749.66;;;14.24;38.84
6835;BME280;3455;42.150;24.734;2023-02-19T05:41:07;66784.13;;;14.46;38.92
6835;BME280;3455;42.150;24.734;2023-02-19T05:43:34;66749.91;;;14.11;38.84
6835;BME280;3455;42.150;24.734;2023-02-19T05:46:02;66768.06;;;14.36;38.88
6835;BME280;3455;42.150;24.734;2023-02-19T05:48:29;66780.88;;;14.52;38.35
6835;BME280;3455;42.150;24.734;2023-02-19T05:51:00;66818.63;;;14.78;38.00
6835;BME280;3455;42.150;24.734;2023-02-19T05:53:28;66836.69;;;14.88;37.83
6835;BME280;3455;42.150;24.734;2023-02-19T05:55:54;66839.22;;;14.99;37.29
6835;BME280;3455;42.150;24.734;2023-02-19T05:58:21;66900.47;;;15.49;36.31
6835;BME280;3455;42.150;24.734;2023-02-19T06:00:48;66878.50;;;15.56;36.13
6835;BME280;3455;42.150;24.734;2023-02-19T06:03:16;66913.66;;;15.79;35.63
6835;BME280;3455;42.150;24.734;2023-02-19T06:05:43;66931.34;;;15.96;35.34
6835;BME280;3455;42.150;24.734;2023-02-19T06:08:11;66962.34;;;15.99;35.26
6835;BME280;3455;42.150;24.734;2023-02-19T06:10:38;66876.59;;;15.73;35.73
6835;BME280;3455;42.150;24.734;2023-02-19T06:13:05;66941.72;;;16.17;35.00
6835;BME280;3455;42.150;24.734;2023-02-19T06:15:33;66973.56;;;16.18;34.99
6835;BME280;3455;42.150;24.734;2023-02-19T06:18:00;66995.28;;;16.78;33.98
6835;BME280;3455;42.150;24.734;2023-02-19T06:20:28;67028.69;;;16.71;33.84
6835;BME280;3455;42.150;24.734;2023-02-19T06:22:55;67030.63;;;16.55;34.22
6835;BME280;3455;42.150;24.734;2023-02-19T06:25:22;67064.53;;;16.99;33.50
6835;BME280;3455;42.150;24.734;2023-02-19T06:27:48;67157.59;;;17.79;32.36
6835;BME280;3455;42.150;24.734;2023-02-19T06:30:15;67364.09;;;19.36;29.86
6835;BME280;3455;42.150;24.734;2023-02-19T06:32:42;67478.63;;;20.65;28.34
6835;BME280;3455;42.150;24.734;2023-02-19T06:35:10;67536.44;;;20.97;27.50
6835;BME280;3455;42.150;24.734;2023-02-19T06:37:38;67631.44;;;21.86;26.22
6835;BME280;3455;42.150;24.734;2023-02-19T06:40:06;67674.34;;;22.14;26.46
6835;BME280;3455;42.150;24.734;2023-02-19T06:42:32;67664.31;;;22.28;25.74
6835;BME280;3455;42.150;24.734;2023-02-19T06:44:59;67882.75;;;24.12;23.87
6835;BME280;3455;42.150;24.734;2023-02-19T06:47:29;68009.00;;;24.95;23.03
6835;BME280;3455;42.150;24.734;2023-02-19T06:49:56;68016.75;;;25.11;22.66
6835;BME280;3455;42.150;24.734;2023-02-19T06:52:23;68026.16;;;24.87;22.52
6835;BME280;3455;42.150;24.734;2023-02-19T06:54:51;68142.72;;;26.03;21.47
6835;BME280;3455;42.150;24.734;2023-02-19T06:57:17;67995.19;;;24.97;22.34
6835;BME280;3455;42.150;24.734;2023-02-19T06:59:44;67856.06;;;23.97;23.48
6835;BME280;3455;42.150;24.734;2023-02-19T07:02:11;67898.56;;;23.94;23.38
6835;BME280;3455;42.150;24.734;2023-02-19T07:04:38;67995.69;;;24.72;22.92
6835;BME280;3455;42.150;24.734;2023-02-19T07:07:05;68115.38;;;25.52;22.05
6835;BME280;3455;42.150;24.734;2023-02-19T07:09:32;68047.00;;;25.29;22.43
6835;BME280;3455;42.150;24.734;2023-02-19T07:12:00;68035.03;;;25.20;22.34
6835;BME280;3455;42.150;24.734;2023-02-19T07:14:27;68029.31;;;25.04;21.90
6835;BME280;3455;42.150;24.734;2023-02-19T07:16:54;67900.63;;;24.14;22.86
6835;BME280;3455;42.150;24.734;2023-02-19T07:19:20;67941.09;;;24.63;22.80
6835;BME280;3455;42.150;24.734;2023-02-19T07:21:47;67996.75;;;25.05;22.25
6835;BME280;3455;42.150;24.734;2023-02-19T07:24:14;68048.66;;;25.25;21.86
6835;BME280;3455;42.150;24.734;2023-02-19T07:26:41;68114.22;;;25.51;21.67
6835;BME280;3455;42.150;24.734;2023-02-19T07:29:09;68362.38;;;27.28;20.54
6835;BME280;3455;42.150;24.734;2023-02-19T07:31:36;68266.88;;;26.80;20.81
6835;BME280;3455;42.150;24.734;2023-02-19T07:34:02;68330.94;;;27.14;20.03
6835;BME280;3455;42.150;24.734;2023-02-19T07:36:29;68021.25;;;25.06;21.94
6835;BME280;3455;42.150;24.734;2023-02-19T07:38:57;68127.09;;;25.62;21.91
6835;BME280;3455;42.150;24.734;2023-02-19T07:41:25;68218.84;;;26.38;21.31
6835;BME280;3455;42.150;24.734;2023-02-19T07:43:53;68195.78;;;26.41;21.23
6835;BME280;3455;42.150;24.734;2023-02-19T07:46:21;68157.25;;;26.12;21.66
6835;BME280;3455;42.150;24.734;2023-02-19T07:48:48;68185.53;;;26.30;20.98
6835;BME280;3455;42.150;24.734;2023-02-19T07:51:17;68084.22;;;25.52;22.11
6835;BME280;3455;42.150;24.734;2023-02-19T07:53:44;68021.94;;;25.11;21.99
6835;BME280;3455;42.150;24.734;2023-02-19T07:56:11;68146.88;;;26.12;21.38
6835;BME280;3455;42.150;24.734;2023-02-19T07:58:39;68243.69;;;26.78;20.41
6835;BME280;3455;42.150;24.734;2023-02-19T08:01:07;68100.69;;;25.92;21.42
6835;BME280;3455;42.150;24.734;2023-02-19T08:03:35;68265.16;;;26.84;20.95
6835;BME280;3455;42.150;24.734;2023-02-19T08:06:01;68319.63;;;27.31;20.14
6835;BME280;3455;42.150;24.734;2023-02-19T08:08:28;68438.06;;;27.99;19.67
6835;BME280;3455;42.150;24.734;2023-02-19T08:10:58;68598.81;;;28.98;18.96
6835;BME280;3455;42.150;24.734;2023-02-19T08:13:42;68538.34;;;28.86;18.84
6835;BME280;3455;42.150;24.734;2023-02-19T08:16:12;68802.66;;;30.31;18.25
6835;BME280;3455;42.150;24.734;2023-02-19T08:18:42;68655.84;;;29.53;18.49
6835;BME280;3455;42.150;24.734;2023-02-19T08:21:09;68696.38;;;29.88;18.16
6835;BME280;3455;42.150;24.734;2023-02-19T08:23:36;68631.28;;;29.40;18.54
6835;BME280;3455;42.150;24.734;2023-02-19T08:26:03;68606.63;;;29.19;18.93
6835;BME280;3455;42.150;24.734;2023-02-19T08:28:30;68725.78;;;30.18;18.13
6835;BME280;3455;42.150;24.734;2023-02-19T08:30:59;68758.59;;;30.38;18.21
6835;BME280;3455;42.150;24.734;2023-02-19T08:33:26;68674.34;;;29.92;18.41
6835;BME280;3455;42.150;24.734;2023-02-19T08:35:54;68811.16;;;30.56;17.81
6835;BME280;3455;42.150;24.734;2023-02-19T08:38:21;68923.00;;;31.13;17.99
6835;BME280;3455;42.150;24.734;2023-02-19T08:40:48;68878.75;;;31.11;17.47
6835;BME280;3455;42.150;24.734;2023-02-19T08:43:16;68930.69;;;31.19;17.01
6835;BME280;3455;42.150;24.734;2023-02-19T08:45:44;68995.91;;;31.67;17.21
6835;BME280;3455;42.150;24.734;2023-02-19T08:48:12;69362.59;;;33.67;15.74
6835;BME280;3455;42.150;24.734;2023-02-19T08:50:39;69259.09;;;33.14;15.80
6835;BME280;3455;42.150;24.734;2023-02-19T08:53:07;69160.41;;;32.65;16.63
6835;BME280;3455;42.150;24.734;2023-02-19T08:55:36;69239.50;;;33.13;15.71
6835;BME280;3455;42.150;24.734;2023-02-19T08:58:03;69411.59;;;34.05;15.37
6835;BME280;3455;42.150;24.734;2023-02-19T09:00:30;69168.66;;;32.72;15.87
6835;BME280;3455;42.150;24.734;2023-02-19T09:02:58;69439.22;;;34.16;15.71
6835;BME280;3455;42.150;24.734;2023-02-19T09:05:24;69438.03;;;34.14;15.38
6835;BME280;3455;42.150;24.734;2023-02-19T09:07:51;69520.75;;;34.77;15.09
6835;BME280;3455;42.150;24.734;2023-02-19T09:10:19;69714.78;;;35.77;14.26
6835;BME280;3455;42.150;24.734;2023-02-19T09:12:46;69474.97;;;34.44;15.53
6835;BME280;3455;42.150;24.734;2023-02-19T09:15:13;69167.59;;;32.80;16.17
6835;BME280;3455;42.150;24.734;2023-02-19T09:17:39;68980.53;;;31.49;17.41
6835;BME280;3455;42.150;24.734;2023-02-19T09:20:07;69232.81;;;33.14;16.41
6835;BME280;3455;42.150;24.734;2023-02-19T09:22:35;69408.41;;;34.09;15.91
6835;BME280;3455;42.150;24.734;2023-02-19T09:25:01;69308.63;;;33.52;16.20
6835;BME280;3455;42.150;24.734;2023-02-19T09:27:30;69507.06;;;34.61;15.87
6835;BME280;3455;42.150;24.734;2023-02-19T09:29:57;69808.44;;;36.08;14.95
6835;BME280;3455;42.150;24.734;2023-02-19T09:32:24;69368.84;;;33.54;15.97
6835;BME280;3455;42.150;24.734;2023-02-19T09:34:51;69566.97;;;35.22;14.96
6835;BME280;3455;42.150;24.734;2023-02-19T09:37:17;69502.97;;;34.62;15.58
6835;BME280;3455;42.150;24.734;2023-02-19T09:39:44;69328.25;;;33.79;15.60
6835;BME280;3455;42.150;24.734;2023-02-19T09:42:13;69719.28;;;35.62;15.00
6835;BME280;3455;42.150;24.734;2023-02-19T09:44:46;69435.25;;;34.26;14.99
6835;BME280;3455;42.150;24.734;2023-02-19T09:47:17;69400.47;;;34.05;14.98
6835;BME280;3455;42.150;24.734;2023-02-19T09:49:46;69471.69;;;34.39;15.12
6835;BME280;3455;42.150;24.734;2023-02-19T09:52:19;69266.19;;;33.20;15.92
6835;BME280;3455;42.150;24.734;2023-02-19T09:54:51;69495.94;;;34.35;15.19
6835;BME280;3455;42.150;24.734;2023-02-19T09:57:25;69345.09;;;33.70;15.12
6835;BME280;3455;42.150;24.734;2023-02-19T10:00:00;69304.50;;;33.49;16.11
6835;BME280;3455;42.150;24.734;2023-02-19T10:02:29;69551.06;;;34.67;15.15
6835;BME280;3455;42.150;24.734;2023-02-19T10:04:57;69614.38;;;35.17;14.48
6835;BME280;3455;42.150;24.734;2023-02-19T10:07:25;69410.53;;;34.13;15.54
6835;BME280;3455;42.150;24.734;2023-02-19T10:10:01;69531.94;;;34.82;14.97
6835;BME280;3455;42.150;24.734;2023-02-19T10:12:33;69432.09;;;34.30;15.40
6835;BME280;3455;42.150;24.734;2023-02-19T10:15:07;69683.81;;;35.41;14.63
6835;BME280;3455;42.150;24.734;2023-02-19T10:17:37;69684.00;;;35.55;14.25
6835;BME280;3455;42.150;24.734;2023-02-19T10:20:04;69858.81;;;36.47;14.38
6835;BME280;3455;42.150;24.734;2023-02-19T10:22:32;69978.16;;;36.99;13.28
6835;BME280;3455;42.150;24.734;2023-02-19T10:25:02;69953.81;;;36.78;14.07
6835;BME280;3455;42.150;24.734;2023-02-19T10:27:30;69627.88;;;35.45;14.21
6835;BME280;3455;42.150;24.734;2023-02-19T10:29:57;69489.50;;;34.59;14.94
6835;BME280;3455;42.150;24.734;2023-02-19T10:32:27;69424.72;;;34.26;14.78
6835;BME280;3455;42.150;24.734;2023-02-19T10:35:09;69486.53;;;34.57;14.73
6835;BME280;3455;42.150;24.734;2023-02-19T10:37:41;70031.59;;;37.41;13.71
6835;BME280;3455;42.150;24.734;2023-02-19T10:40:14;70077.88;;;37.72;13.33
6835;BME280;3455;42.150;24.734;2023-02-19T10:42:45;70189.09;;;37.72;12.84
6835;BME280;3455;42.150;24.734;2023-02-19T10:45:17;69727.19;;;35.83;13.56
6835;BME280;3455;42.150;24.734;2023-02-19T10:47:47;69619.56;;;35.13;13.82
6835;BME280;3455;42.150;24.734;2023-02-19T10:50:18;69598.69;;;35.26;14.09
6835;BME280;3455;42.150;24.734;2023-02-19T10:52:50;69588.94;;;35.00;14.31
6835;BME280;3455;42.150;24.734;2023-02-19T10:55:26;69563.44;;;34.73;14.38
6835;BME280;3455;42.150;24.734;2023-02-19T10:57:54;69169.78;;;32.68;16.13
6835;BME280;3455;42.150;24.734;2023-02-19T11:00:25;69062.97;;;32.16;15.99
6835;BME280;3455;42.150;24.734;2023-02-19T11:03:17;69393.59;;;33.92;15.46
6835;BME280;3455;42.150;24.734;2023-02-19T11:05:59;69640.00;;;35.53;13.90
6835;BME280;3455;42.150;24.734;2023-02-19T11:08:27;69906.63;;;36.65;13.46
6835;BME280;3455;42.150;24.734;2023-02-19T11:10:54;69541.25;;;34.77;14.11
6835;BME280;3455;42.150;24.734;2023-02-19T11:13:25;69610.13;;;35.29;14.44
6835;BME280;3455;42.150;24.734;2023-02-19T11:15:55;69751.28;;;35.90;13.92
6835;BME280;3455;42.150;24.734;2023-02-19T11:18:25;69820.97;;;36.23;13.94
6835;BME280;3455;42.150;24.734;2023-02-19T11:20:54;69923.38;;;36.89;13.22
6835;BME280;3455;42.150;24.734;2023-02-19T11:23:24;69916.94;;;36.67;13.32
6835;BME280;3455;42.150;24.734;2023-02-19T11:25:53;69855.28;;;36.43;13.50
6835;BME280;3455;42.150;24.734;2023-02-19T11:28:29;69720.44;;;35.63;13.55
6835;BME280;3455;42.150;24.734;2023-02-19T11:31:12;69889.53;;;36.85;12.30
6835;BME280;3455;42.150;24.734;2023-02-19T11:33:44;69634.13;;;35.53;14.13
6835;BME280;3455;42.150;24.734;2023-02-19T11:36:24;69473.69;;;34.34;14.86
6835;BME280;3455;42.150;24.734;2023-02-19T11:38:52;69435.25;;;34.26;14.75
6835;BME280;3455;42.150;24.734;2023-02-19T11:41:27;69384.63;;;34.00;14.78
6835;BME280;3455;42.150;24.734;2023-02-19T11:44:07;69290.56;;;33.55;15.21
6835;BME280;3455;42.150;24.734;2023-02-19T11:46:43;69435.66;;;34.12;14.67
6835;BME280;3455;42.150;24.734;2023-02-19T11:49:23;69496.59;;;34.65;14.55
6835;BME280;3455;42.150;24.734;2023-02-19T11:52:14;69693.13;;;35.81;13.34
6835;BME280;3455;42.150;24.734;2023-02-19T11:54:48;69546.69;;;34.90;14.26
6835;BME280;3455;42.150;24.734;2023-02-19T11:57:27;69538.50;;;34.93;14.38
6835;BME280;3455;42.150;24.734;2023-02-19T12:00:11;69663.09;;;35.48;14.38
6835;BME280;3455;42.150;24.734;2023-02-19T12:03:00;69680.22;;;35.58;13.86
6835;BME280;3455;42.150;24.734;2023-02-19T12:05:47;69909.41;;;36.74;12.46
6835;BME280;3455;42.150;24.734;2023-02-19T12:08:34;69804.25;;;36.50;13.48
6835;BME280;3455;42.150;24.734;2023-02-19T12:11:11;70012.72;;;37.34;13.14
6835;BME280;3455;42.150;24.734;2023-02-19T12:13:55;69670.31;;;35.63;13.42
6835;BME280;3455;42.150;24.734;2023-02-19T12:16:28;69851.13;;;36.65;12.71
6835;BME280;3455;42.150;24.734;2023-02-19T12:19:17;70085.44;;;37.65;12.43
6835;BME280;3455;42.150;24.734;2023-02-19T12:22:03;70280.84;;;38.51;12.31
6835;BME280;3455;42.150;24.734;2023-02-19T12:24:54;70062.56;;;37.68;12.48
6835;BME280;3455;42.150;24.734;2023-02-19T12:27:34;70550.00;;;39.96;11.08
6835;BME280;3455;42.150;24.734;2023-02-19T12:30:20;70312.63;;;38.92;11.38
6835;BME280;3455;42.150;24.734;2023-02-19T12:33:03;69964.72;;;37.06;13.19
6835;BME280;3455;42.150;24.734;2023-02-19T12:35:45;70115.72;;;37.86;12.07
6835;BME280;3455;42.150;24.734;2023-02-19T12:38:26;70099.22;;;37.40;12.30
6835;BME280;3455;42.150;24.734;2023-02-19T12:41:26;70043.50;;;37.51;12.87
6835;BME280;3455;42.150;24.734;2023-02-19T12:43:58;70293.34;;;38.62;11.73
6835;BME280;3455;42.150;24.734;2023-02-19T12:46:30;69841.13;;;36.40;13.30
6835;BME280;3455;42.150;24.734;2023-02-19T12:49:02;70136.41;;;37.95;11.93
6835;BME280;3455;42.150;24.734;2023-02-19T12:51:36;70064.13;;;37.55;12.90
6835;BME280;3455;42.150;24.734;2023-02-19T12:54:13;70100.44;;;37.87;12.15
6835;BME280;3455;42.150;24.734;2023-02-19T12:56:45;69952.31;;;37.00;13.07
6835;BME280;3455;42.150;24.734;2023-02-19T12:59:18;70011.78;;;37.31;12.78
6835;BME280;3455;42.150;24.734;2023-02-19T13:01:57;70016.81;;;37.33;12.90
6835;BME280;3455;42.150;24.734;2023-02-19T13:04:31;70024.66;;;37.49;12.55
6835;BME280;3455;42.150;24.734;2023-02-19T13:07:03;70036.09;;;37.47;12.36
6835;BME280;3455;42.150;24.734;2023-02-19T13:09:37;70048.94;;;37.40;12.65
6835;BME280;3455;42.150;24.734;2023-02-19T13:12:08;70010.97;;;37.37;12.54
6835;BME280;3455;42.150;24.734;2023-02-19T13:14:40;69984.94;;;37.24;12.94
6835;BME280;3455;42.150;24.734;2023-02-19T13:17:18;69864.34;;;36.65;13.33
6835;BME280;3455;42.150;24.734;2023-02-19T13:19:50;69727.25;;;35.67;13.80
6835;BME280;3455;42.150;24.734;2023-02-19T13:22:25;69523.66;;;34.75;14.34
6835;BME280;3455;42.150;24.734;2023-02-19T13:25:15;69727.28;;;35.92;14.03
6835;BME280;3455;42.150;24.734;2023-02-19T13:28:07;69810.69;;;36.46;13.24
6835;BME280;3455;42.150;24.734;2023-02-19T13:30:55;69791.06;;;36.24;13.62